createdAt,value
2023-05-09T00:00:05.958Z,15.4789
2023-05-09T00:01:07.357Z,15.5578
2023-05-09T00:02:09.073Z,15.6435
2023-05-09T00:03:10.713Z,15.6466
2023-05-09T00:04:12.348Z,15.5231
2023-05-09T00:05:14.219Z,15.4292
2023-05-09T00:06:15.672Z,15.4116
2023-05-09T00:07:17.241Z,15.4432
2023-05-09T00:08:18.902Z,15.5478
2023-05-09T00:09:20.596Z,15.5864
2023-05-09T00:10:22.193Z,15.6316
2023-05-09T00:11:23.833Z,15.5301
2023-05-09T00:12:25.435Z,15.4225
2023-05-09T00:13:27.121Z,15.4625
2023-05-09T00:14:28.742Z,15.5141
2023-05-09T00:15:30.464Z,15.5971
2023-05-09T00:16:32.046Z,15.6445
2023-05-09T00:17:33.723Z,15.5989
2023-05-09T00:18:35.292Z,15.5301
2023-05-09T00:19:36.928Z,15.4621
2023-05-09T00:20:38.611Z,15.4448
2023-05-09T00:21:40.237Z,15.5085
2023-05-09T00:22:41.886Z,15.5215
2023-05-09T00:23:43.534Z,15.5488
2023-05-09T00:24:45.093Z,15.4516
2023-05-09T00:25:46.792Z,15.3972
2023-05-09T00:26:48.434Z,15.3890
2023-05-09T00:27:50.062Z,15.4531
2023-05-09T00:28:51.656Z,15.4870
2023-05-09T00:29:53.321Z,15.4775
2023-05-09T00:30:55.431Z,15.5083
2023-05-09T00:31:56.638Z,15.5223
2023-05-09T00:32:58.291Z,15.4426
2023-05-09T00:33:59.913Z,15.4268
2023-05-09T00:35:02.638Z,15.4907
2023-05-09T00:36:03.448Z,15.4989
2023-05-09T00:37:04.908Z,15.4999
2023-05-09T00:38:06.582Z,15.5003
2023-05-09T00:39:08.187Z,15.4397
2023-05-09T00:40:09.870Z,15.4358
2023-05-09T00:41:11.595Z,15.4666
2023-05-09T00:42:13.172Z,15.4563
2023-05-09T00:43:14.959Z,15.4171
2023-05-09T00:44:16.546Z,15.4013
2023-05-09T00:45:18.143Z,15.4594
2023-05-09T00:46:19.697Z,15.4510
2023-05-09T00:47:21.337Z,15.4099
2023-05-09T00:48:22.970Z,15.4165
2023-05-09T00:49:24.563Z,15.3834
2023-05-09T00:50:26.247Z,15.3497
2023-05-09T00:51:27.981Z,15.4027
2023-05-09T00:52:29.542Z,15.4557
2023-05-09T00:53:32.047Z,15.4331
2023-05-09T00:54:32.799Z,15.4403
2023-05-09T00:55:34.402Z,15.4208
2023-05-09T00:56:36.070Z,15.3596
2023-05-09T00:57:37.788Z,15.3372
2023-05-09T00:58:39.370Z,15.3960
2023-05-09T00:59:41.009Z,15.4056
2023-05-09T01:00:42.653Z,15.4317
2023-05-09T01:01:44.317Z,15.3919
2023-05-09T01:02:46.181Z,15.4161
2023-05-09T01:03:47.726Z,15.3896
2023-05-09T01:04:49.195Z,15.3573
2023-05-09T01:05:51.191Z,15.3177
2023-05-09T01:06:52.482Z,15.3409
2023-05-09T01:07:54.229Z,15.3803
2023-05-09T01:08:55.739Z,15.4079
2023-05-09T01:09:57.361Z,15.3608
2023-05-09T01:11:00.107Z,15.3900
2023-05-09T01:12:00.629Z,15.3645
2023-05-09T01:13:02.282Z,15.3251
2023-05-09T01:14:03.908Z,15.2996
2023-05-09T01:15:05.485Z,15.2756
2023-05-09T01:16:07.207Z,15.3074
2023-05-09T01:17:08.782Z,15.3649
2023-05-09T01:18:10.559Z,15.4235
2023-05-09T01:19:12.093Z,15.4029
2023-05-09T01:20:13.724Z,15.3912
2023-05-09T01:21:15.311Z,15.3043
2023-05-09T01:22:17.070Z,15.2534
2023-05-09T01:23:18.663Z,15.2033
2023-05-09T01:24:20.309Z,15.1324
2023-05-09T01:25:21.880Z,15.1556
2023-05-09T01:26:23.558Z,15.2643
2023-05-09T01:27:25.179Z,15.2739
2023-05-09T01:28:27.113Z,15.2727
2023-05-09T01:29:28.425Z,15.2353
2023-05-09T01:30:30.111Z,15.1415
2023-05-09T01:31:31.768Z,15.1189
2023-05-09T01:32:33.456Z,15.0798
2023-05-09T01:33:35.003Z,15.0367
2023-05-09T01:34:36.667Z,15.0646
2023-05-09T01:35:38.304Z,15.1934
2023-05-09T01:36:39.960Z,15.2425
2023-05-09T01:37:41.606Z,15.2532
2023-05-09T01:38:43.253Z,15.1766
2023-05-09T01:39:44.821Z,15.1462
2023-05-09T01:40:46.526Z,15.1057
2023-05-09T01:41:48.095Z,15.0094
2023-05-09T01:42:49.819Z,14.9683
2023-05-09T01:43:51.482Z,15.0763
2023-05-09T01:44:53.074Z,15.1936
2023-05-09T01:45:54.731Z,15.1737
2023-05-09T01:46:56.400Z,15.0683
2023-05-09T01:47:58.007Z,14.9823
2023-05-09T01:48:59.661Z,14.9547
2023-05-09T01:50:01.256Z,14.8919
2023-05-09T01:51:02.916Z,14.8736
2023-05-09T01:52:04.558Z,14.8888
2023-05-09T01:53:06.207Z,15.0063
2023-05-09T01:54:07.902Z,15.0396
2023-05-09T01:55:09.522Z,14.9981
2023-05-09T01:56:11.135Z,14.9322
2023-05-09T01:57:12.732Z,14.9052
2023-05-09T01:58:14.413Z,14.8416
2023-05-09T01:59:16.160Z,14.7954
2023-05-09T02:00:18.136Z,14.7567
2023-05-09T02:01:19.307Z,14.7923
2023-05-09T02:02:20.949Z,14.8849
2023-05-09T02:03:22.658Z,14.9646
2023-05-09T02:04:24.604Z,14.9301
2023-05-09T02:05:25.884Z,14.9422
2023-05-09T02:06:27.453Z,14.9059
2023-05-09T02:07:29.131Z,14.8251
2023-05-09T02:08:30.838Z,14.7912
2023-05-09T02:09:32.458Z,14.7518
2023-05-09T02:10:34.084Z,14.7555
2023-05-09T02:11:35.678Z,14.8206
2023-05-09T02:12:37.319Z,14.8518
2023-05-09T02:13:38.909Z,14.8149
2023-05-09T02:14:40.613Z,14.7943
2023-05-09T02:15:42.180Z,14.7693
2023-05-09T02:16:43.971Z,14.7099
2023-05-09T02:17:45.470Z,14.6678
2023-05-09T02:18:47.121Z,14.7356
2023-05-09T02:19:48.822Z,14.8249
2023-05-09T02:20:50.489Z,14.8323
2023-05-09T02:21:52.064Z,14.8268
2023-05-09T02:22:53.709Z,14.7990
2023-05-09T02:23:55.252Z,14.7621
2023-05-09T02:24:57.000Z,14.6787
2023-05-09T02:25:58.655Z,14.5930
2023-05-09T02:27:00.222Z,14.6224
2023-05-09T02:28:01.879Z,14.6690
2023-05-09T02:29:03.470Z,14.7473
2023-05-09T02:30:05.124Z,14.7419
2023-05-09T02:31:06.809Z,14.7099
2023-05-09T02:32:08.449Z,14.6579
2023-05-09T02:33:10.046Z,14.5556
2023-05-09T02:34:11.639Z,14.5314
2023-05-09T02:35:13.620Z,14.5754
2023-05-09T02:36:14.947Z,14.7241
2023-05-09T02:37:16.601Z,14.7530
2023-05-09T02:38:18.199Z,14.7426
2023-05-09T02:39:19.909Z,14.7397
2023-05-09T02:40:21.620Z,14.6569
2023-05-09T02:41:23.180Z,14.5969
2023-05-09T02:42:24.783Z,14.5367
2023-05-09T02:43:26.449Z,14.5082
2023-05-09T02:44:28.035Z,14.5287
2023-05-09T02:45:29.784Z,14.6433
2023-05-09T02:46:31.443Z,14.7204
2023-05-09T02:47:33.052Z,14.7115
2023-05-09T02:48:34.638Z,14.6920
2023-05-09T02:49:36.307Z,14.6199
2023-05-09T02:50:38.023Z,14.5571
2023-05-09T02:51:40.112Z,14.5291
2023-05-09T02:52:41.296Z,14.5975
2023-05-09T02:53:42.845Z,14.7956
2023-05-09T02:54:44.470Z,15.0338
2023-05-09T02:55:46.170Z,15.2799
2023-05-09T02:56:48.088Z,15.5149
2023-05-09T02:57:53.993Z,15.7427
2023-05-09T02:58:51.104Z,15.9688
2023-05-09T02:59:52.704Z,16.2494
2023-05-09T03:00:54.407Z,16.5479
2023-05-09T03:01:56.070Z,16.6403
2023-05-09T03:02:57.724Z,16.5670
2023-05-09T03:03:59.277Z,16.4900
2023-05-09T03:05:00.906Z,16.4341
2023-05-09T03:06:02.581Z,16.3248
2023-05-09T03:07:05.098Z,16.2474
2023-05-09T03:08:05.912Z,16.1662
2023-05-09T03:09:07.504Z,16.1295
2023-05-09T03:10:09.089Z,16.0968
2023-05-09T03:11:10.812Z,16.0939
2023-05-09T03:12:12.416Z,16.1486
2023-05-09T03:13:14.126Z,16.1705
2023-05-09T03:14:15.656Z,16.1825
2023-05-09T03:15:17.349Z,16.1989
2023-05-09T03:16:18.911Z,16.2009
2023-05-09T03:17:21.608Z,16.1664
2023-05-09T03:18:22.228Z,16.2016
2023-05-09T03:19:23.934Z,16.2350
2023-05-09T03:20:25.484Z,16.2679
2023-05-09T03:21:27.189Z,16.2969
2023-05-09T03:22:28.822Z,16.2468
2023-05-09T03:23:30.432Z,16.1722
2023-05-09T03:24:32.098Z,16.2299
2023-05-09T03:25:33.784Z,16.3084
2023-05-09T03:26:35.380Z,16.3597
2023-05-09T03:27:37.079Z,16.3965
2023-05-09T03:28:38.605Z,16.3831
2023-05-09T03:29:40.283Z,16.3406
2023-05-09T03:30:41.907Z,16.3273
2023-05-09T03:31:43.630Z,16.3108
2023-05-09T03:32:45.285Z,16.4094
2023-05-09T03:33:46.859Z,16.4101
2023-05-09T03:34:48.532Z,16.4187
2023-05-09T03:35:50.110Z,16.4598
2023-05-09T03:36:51.793Z,16.4339
2023-05-09T03:37:53.447Z,16.4372
2023-05-09T03:38:55.034Z,16.4127
2023-05-09T03:39:56.695Z,16.4080
2023-05-09T03:40:59.237Z,16.4216
2023-05-09T03:41:59.997Z,16.4316
2023-05-09T03:43:01.637Z,16.4546
2023-05-09T03:44:03.367Z,16.4515
2023-05-09T03:45:04.839Z,16.4472
2023-05-09T03:46:06.505Z,16.4694
2023-05-09T03:47:08.143Z,16.5286
2023-05-09T03:48:30.826Z,16.5411
2023-05-09T03:49:11.447Z,16.6021
2023-05-09T03:50:13.080Z,16.6767
2023-05-09T03:51:14.698Z,16.7229
2023-05-09T03:52:16.578Z,16.6596
2023-05-09T03:53:18.000Z,16.6370
2023-05-09T03:54:19.702Z,16.5707
2023-05-09T03:55:21.368Z,16.4832
2023-05-09T03:56:22.963Z,16.4220
2023-05-09T03:57:25.116Z,16.4096
2023-05-09T03:58:26.207Z,16.4039
2023-05-09T03:59:28.593Z,16.4053
2023-05-09T04:00:29.567Z,16.4035
2023-05-09T04:01:31.154Z,16.3747
2023-05-09T04:02:32.989Z,16.4411
2023-05-09T04:03:34.481Z,16.4760
2023-05-09T04:04:36.034Z,16.5592
2023-05-09T04:05:37.699Z,16.6120
2023-05-09T04:06:39.372Z,16.5586
2023-05-09T04:07:41.101Z,16.5064
2023-05-09T04:08:42.763Z,16.5514
2023-05-09T04:09:44.337Z,16.5594
2023-05-09T04:10:45.996Z,16.5518
2023-05-09T04:11:47.649Z,16.5549
2023-05-09T04:12:49.372Z,16.5109
2023-05-09T04:13:50.920Z,16.4760
2023-05-09T04:14:52.581Z,16.5251
2023-05-09T04:15:54.206Z,16.6146
2023-05-09T04:16:55.934Z,16.5382
2023-05-09T04:17:57.560Z,16.5354
2023-05-09T04:18:59.224Z,16.6167
2023-05-09T04:20:00.742Z,16.6876
2023-05-09T04:21:02.429Z,16.7054
2023-05-09T04:22:04.018Z,16.7112
2023-05-09T04:23:05.864Z,16.5606
2023-05-09T04:24:07.398Z,16.5857
2023-05-09T04:25:09.002Z,16.6722
2023-05-09T04:26:10.694Z,16.7336
2023-05-09T04:27:12.297Z,16.7479
2023-05-09T04:28:13.970Z,16.7373
2023-05-09T04:29:15.545Z,16.7182
2023-05-09T04:30:17.190Z,16.7241
2023-05-09T04:31:18.907Z,16.6352
2023-05-09T04:32:20.550Z,16.5602
2023-05-09T04:33:22.180Z,16.6136
2023-05-09T04:34:23.758Z,16.6925
2023-05-09T04:35:25.409Z,16.7330
2023-05-09T04:36:27.062Z,16.7440
2023-05-09T04:37:28.686Z,16.7917
2023-05-09T04:38:30.404Z,16.7732
2023-05-09T04:39:31.937Z,16.7112
2023-05-09T04:40:33.715Z,16.6502
2023-05-09T04:41:35.270Z,16.5933
2023-05-09T04:42:36.976Z,16.6496
2023-05-09T04:43:38.586Z,16.6950
2023-05-09T04:44:40.294Z,16.6991
2023-05-09T04:45:41.914Z,16.7416
2023-05-09T04:46:43.644Z,16.7759
2023-05-09T04:47:45.129Z,16.7771
2023-05-09T04:48:47.206Z,16.7369
2023-05-09T04:49:48.381Z,16.7243
2023-05-09T04:50:50.054Z,16.7857
2023-05-09T04:51:51.713Z,16.8011
2023-05-09T04:52:53.321Z,16.9004
2023-05-09T04:53:55.070Z,17.0914
2023-05-09T04:54:57.105Z,17.4151
2023-05-09T04:55:58.232Z,17.7707
2023-05-09T04:57:09.819Z,18.2517
2023-05-09T04:58:01.580Z,18.6330
2023-05-09T04:59:04.211Z,18.9329
2023-05-09T05:00:04.873Z,19.0964
2023-05-09T05:01:06.544Z,19.3098
2023-05-09T05:02:08.179Z,19.3823
2023-05-09T05:03:09.744Z,19.5269
2023-05-09T05:04:11.445Z,19.6812
2023-05-09T05:05:13.038Z,19.8463
2023-05-09T05:06:14.655Z,20.0618
2023-05-09T05:07:16.343Z,20.0488
2023-05-09T05:08:17.927Z,19.9059
2023-05-09T05:09:19.585Z,20.0353
2023-05-09T05:10:21.200Z,20.2150
2023-05-09T05:11:22.923Z,20.4087
2023-05-09T05:12:24.565Z,20.5995
2023-05-09T05:13:26.184Z,20.6047
2023-05-09T05:14:27.831Z,20.5932
2023-05-09T05:15:29.569Z,20.5685
2023-05-09T05:16:31.102Z,20.5494
2023-05-09T05:17:32.710Z,20.8053
2023-05-09T05:18:34.431Z,20.7852
2023-05-09T05:19:36.048Z,20.7273
2023-05-09T05:20:38.631Z,20.6119
2023-05-09T05:21:39.323Z,20.6499
2023-05-09T05:22:40.851Z,20.7478
2023-05-09T05:23:42.460Z,21.0042
2023-05-09T05:24:44.147Z,20.7480
2023-05-09T05:25:45.789Z,20.6293
2023-05-09T05:26:47.409Z,20.5724
2023-05-09T05:27:49.024Z,20.7673
2023-05-09T05:28:50.774Z,20.9124
2023-05-09T05:29:52.371Z,21.1128
2023-05-09T05:30:54.001Z,21.0896
2023-05-09T05:31:55.776Z,21.0574
2023-05-09T05:32:57.314Z,21.0420
2023-05-09T05:33:59.935Z,21.0479
2023-05-09T05:35:01.799Z,21.1843
2023-05-09T05:36:02.352Z,21.1913
2023-05-09T05:37:03.948Z,20.9647
2023-05-09T05:38:05.622Z,20.8444
2023-05-09T05:39:07.221Z,20.9545
2023-05-09T05:40:08.869Z,21.1361
2023-05-09T05:41:10.594Z,21.2055
2023-05-09T05:42:12.092Z,20.8869
2023-05-09T05:43:13.806Z,20.7277
2023-05-09T05:44:15.505Z,20.8189
2023-05-09T05:45:17.303Z,20.9230
2023-05-09T05:46:18.828Z,21.2915
2023-05-09T05:47:20.353Z,21.4113
2023-05-09T05:48:21.960Z,21.1827
2023-05-09T05:49:23.615Z,21.1777
2023-05-09T05:50:25.253Z,21.2139
2023-05-09T05:51:26.989Z,21.2926
2023-05-09T05:52:28.529Z,21.5426
2023-05-09T05:53:32.086Z,21.2240
2023-05-09T05:54:31.800Z,21.2016
2023-05-09T05:55:33.519Z,21.2147
2023-05-09T05:56:35.126Z,21.3158
2023-05-09T05:57:36.825Z,21.4105
2023-05-09T05:58:38.361Z,21.0958
2023-05-09T05:59:40.060Z,21.0071
2023-05-09T06:00:41.731Z,21.1849
2023-05-09T06:01:43.440Z,21.2753
2023-05-09T06:02:45.112Z,21.4986
2023-05-09T06:03:46.730Z,21.3788
2023-05-09T06:04:48.260Z,21.1085
2023-05-09T06:05:49.887Z,21.2221
2023-05-09T06:06:52.201Z,21.3667
2023-05-09T06:07:53.201Z,21.5243
2023-05-09T06:08:54.823Z,21.5035
2023-05-09T06:09:56.480Z,21.1305
2023-05-09T06:10:58.145Z,21.1206
2023-05-09T06:11:59.761Z,21.0498
2023-05-09T06:13:01.441Z,21.2492
2023-05-09T06:14:02.973Z,21.4729
2023-05-09T06:15:04.682Z,21.6301
2023-05-09T06:16:18.454Z,21.5947
2023-05-09T06:17:08.124Z,21.5220
2023-05-09T06:18:09.625Z,21.4865
2023-05-09T06:19:11.313Z,21.6151
2023-05-09T06:20:12.987Z,21.5801
2023-05-09T06:21:14.589Z,21.3402
2023-05-09T06:22:16.224Z,21.3369
2023-05-09T06:23:17.860Z,21.4546
2023-05-09T06:24:27.967Z,21.6249
2023-05-09T06:25:21.158Z,21.7547
2023-05-09T06:26:22.761Z,21.6202
2023-05-09T06:27:24.389Z,21.4292
2023-05-09T06:28:26.086Z,21.4799
2023-05-09T06:29:27.597Z,21.3951
2023-05-09T06:30:29.324Z,21.3799
2023-05-09T06:31:31.067Z,21.4349
2023-05-09T06:32:32.637Z,21.6845
2023-05-09T06:33:34.188Z,21.6679
2023-05-09T06:34:35.864Z,21.4561
2023-05-09T06:35:37.521Z,21.5159
2023-05-09T06:36:39.228Z,21.6099
2023-05-09T06:37:40.802Z,21.8646
2023-05-09T06:38:42.399Z,21.8394
2023-05-09T06:39:44.104Z,21.5411
2023-05-09T06:40:45.752Z,21.5354
2023-05-09T06:41:47.414Z,21.5851
2023-05-09T06:42:49.065Z,21.7441
2023-05-09T06:43:50.518Z,21.8959
2023-05-09T06:44:53.203Z,21.5769
2023-05-09T06:45:53.811Z,21.5046
2023-05-09T06:46:55.473Z,21.5491
2023-05-09T06:47:57.135Z,21.7163
2023-05-09T06:48:58.687Z,21.8788
2023-05-09T06:50:00.405Z,21.6210
2023-05-09T06:51:02.030Z,21.3166
2023-05-09T06:52:03.695Z,21.3067
2023-05-09T06:53:05.302Z,21.2572
2023-05-09T06:54:07.024Z,21.2792
2023-05-09T06:55:11.168Z,21.3879
2023-05-09T06:56:10.187Z,21.5126
2023-05-09T06:57:12.103Z,21.5376
2023-05-09T06:58:13.618Z,21.6880
2023-05-09T06:59:15.134Z,21.7835
2023-05-09T07:00:16.822Z,21.7449
2023-05-09T07:01:18.643Z,21.7728
2023-05-09T07:02:20.175Z,21.9630
2023-05-09T07:03:21.896Z,22.0978
2023-05-09T07:04:23.500Z,22.0540
2023-05-09T07:05:26.220Z,21.9659
2023-05-09T07:06:26.761Z,22.0312
2023-05-09T07:07:28.426Z,22.0791
2023-05-09T07:08:30.090Z,22.0770
2023-05-09T07:09:32.377Z,21.7556
2023-05-09T07:10:33.322Z,21.7537
2023-05-09T07:11:34.911Z,22.0257
2023-05-09T07:12:36.665Z,22.1715
2023-05-09T07:13:38.288Z,22.0107
2023-05-09T07:14:39.836Z,21.9862
2023-05-09T07:15:42.885Z,22.0012
2023-05-09T07:16:43.325Z,22.0873
2023-05-09T07:17:44.881Z,22.0417
2023-05-09T07:18:46.483Z,22.0335
2023-05-09T07:19:48.089Z,21.9753
2023-05-09T07:20:49.726Z,21.8928
2023-05-09T07:21:51.387Z,21.9244
2023-05-09T07:22:53.974Z,21.8369
2023-05-09T07:23:54.703Z,21.7761
2023-05-09T07:24:56.266Z,21.9213
2023-05-09T07:25:57.981Z,22.0382
2023-05-09T07:26:59.637Z,22.0518
2023-05-09T07:28:01.309Z,22.0902
2023-05-09T07:29:02.886Z,22.0035
2023-05-09T07:30:04.498Z,22.0378
2023-05-09T07:31:06.142Z,22.0700
2023-05-09T07:32:08.034Z,22.1834
2023-05-09T07:33:09.431Z,22.3321
2023-05-09T07:34:11.059Z,22.2157
2023-05-09T07:35:13.024Z,22.0914
2023-05-09T07:36:14.427Z,22.1824
2023-05-09T07:37:16.929Z,22.2504
2023-05-09T07:38:17.731Z,22.3338
2023-05-09T07:39:20.222Z,22.2196
2023-05-09T07:40:21.930Z,22.1056
2023-05-09T07:41:22.489Z,22.2547
2023-05-09T07:42:24.140Z,22.1721
2023-05-09T07:43:25.844Z,22.3603
2023-05-09T07:44:27.519Z,22.3952
2023-05-09T07:45:29.145Z,22.4821
2023-05-09T07:46:30.818Z,22.3968
2023-05-09T07:47:32.381Z,22.4116
2023-05-09T07:48:34.005Z,22.7130
2023-05-09T07:49:35.610Z,22.7627
2023-05-09T07:50:37.384Z,22.6047
2023-05-09T07:51:38.902Z,22.5996
2023-05-09T07:52:40.585Z,22.6653
2023-05-09T07:53:42.137Z,22.6378
2023-05-09T07:54:43.930Z,22.4437
2023-05-09T07:55:45.555Z,22.0290
2023-05-09T07:56:47.437Z,21.7219
2023-05-09T07:57:48.725Z,21.6243
2023-05-09T07:58:52.152Z,21.4222
2023-05-09T07:59:52.031Z,21.2160
2023-05-09T08:00:53.615Z,20.8949
2023-05-09T08:01:55.349Z,20.8703
2023-05-09T08:02:57.912Z,20.9984
2023-05-09T08:03:59.401Z,20.9454
2023-05-09T08:05:00.232Z,21.0029
2023-05-09T08:06:02.241Z,20.8594
2023-05-09T08:07:03.462Z,20.5917
2023-05-09T08:08:05.162Z,20.6271
2023-05-09T08:09:06.815Z,21.0677
2023-05-09T08:10:08.517Z,21.2435
2023-05-09T08:11:10.149Z,20.9594
2023-05-09T08:12:11.724Z,20.5874
2023-05-09T08:13:13.445Z,20.4301
2023-05-09T08:14:15.734Z,20.7197
2023-05-09T08:15:17.093Z,20.9376
2023-05-09T08:16:18.386Z,20.9493
2023-05-09T08:17:19.991Z,20.6077
2023-05-09T08:18:21.630Z,20.3072
2023-05-09T08:19:23.781Z,20.3475
2023-05-09T08:20:25.295Z,20.5414
2023-05-09T08:21:26.521Z,20.7639
2023-05-09T08:22:28.200Z,20.6472
2023-05-09T08:23:29.798Z,20.3695
2023-05-09T08:24:31.582Z,20.0992
2023-05-09T08:25:33.078Z,20.1402
2023-05-09T08:26:34.818Z,20.4864
2023-05-09T08:27:36.409Z,20.8452
2023-05-09T08:28:38.007Z,20.8156
2023-05-09T08:29:39.700Z,20.5817
2023-05-09T08:30:41.356Z,20.1289
2023-05-09T08:31:42.907Z,19.9459
2023-05-09T08:32:44.649Z,20.1635
2023-05-09T08:33:46.238Z,20.3968
2023-05-09T08:34:47.910Z,20.2818
2023-05-09T08:35:49.520Z,20.0154
2023-05-09T08:36:51.241Z,19.7892
2023-05-09T08:37:52.785Z,19.9878
2023-05-09T08:38:54.472Z,20.3282
2023-05-09T08:39:56.064Z,20.4498
2023-05-09T08:40:57.768Z,20.2103
2023-05-09T08:41:59.362Z,19.9200
2023-05-09T08:43:00.986Z,19.6699
2023-05-09T08:44:02.635Z,19.8058
2023-05-09T08:45:04.285Z,20.1883
2023-05-09T08:46:05.918Z,20.3313
2023-05-09T08:47:07.565Z,20.1252
2023-05-09T08:48:09.218Z,19.8901
2023-05-09T08:49:10.880Z,19.6423
2023-05-09T08:50:12.616Z,19.6754
2023-05-09T08:51:14.104Z,19.9720
2023-05-09T08:52:15.683Z,20.1168
2023-05-09T08:53:17.407Z,20.0780
2023-05-09T08:54:20.676Z,19.7941
2023-05-09T08:55:20.790Z,19.5333
2023-05-09T08:56:22.369Z,19.5216
2023-05-09T08:57:24.068Z,19.8336
2023-05-09T08:58:25.554Z,20.0688
2023-05-09T08:59:27.298Z,20.0792
2023-05-09T09:00:28.863Z,19.9815
2023-05-09T09:01:30.482Z,19.7609
2023-05-09T09:02:32.136Z,19.5984
2023-05-09T09:03:33.723Z,19.8305
2023-05-09T09:04:35.433Z,20.1448
2023-05-09T09:05:41.758Z,20.1608
2023-05-09T09:06:38.670Z,19.8687
2023-05-09T09:07:40.346Z,19.6306
2023-05-09T09:08:41.966Z,19.6353
2023-05-09T09:09:43.638Z,19.9734
2023-05-09T09:10:45.276Z,20.2748
2023-05-09T09:11:46.816Z,20.2144
2023-05-09T09:12:50.152Z,19.8564
2023-05-09T09:13:50.185Z,19.6540
2023-05-09T09:14:51.804Z,19.6269
2023-05-09T09:15:53.454Z,20.0041
2023-05-09T09:16:55.163Z,20.3198
2023-05-09T09:17:56.773Z,20.3426
2023-05-09T09:18:59.035Z,20.0835
2023-05-09T09:20:00.021Z,19.8907
2023-05-09T09:21:01.678Z,19.7876
2023-05-09T09:22:03.359Z,20.0234
2023-05-09T09:23:04.903Z,20.3062
2023-05-09T09:24:06.543Z,20.3506
2023-05-09T09:25:08.229Z,20.1033
2023-05-09T09:26:09.862Z,19.9057
2023-05-09T09:27:11.479Z,19.7857
2023-05-09T09:28:13.033Z,20.0497
2023-05-09T09:29:14.734Z,20.4077
2023-05-09T09:30:16.530Z,20.4664
2023-05-09T09:31:18.845Z,20.1992
2023-05-09T09:32:20.369Z,19.7958
2023-05-09T09:33:21.290Z,19.6156
2023-05-09T09:34:22.946Z,19.9470
2023-05-09T09:35:24.573Z,20.3927
2023-05-09T09:36:26.280Z,20.5574
2023-05-09T09:37:27.894Z,20.3091
2023-05-09T09:38:29.480Z,20.1310
2023-05-09T09:39:31.155Z,20.0351
2023-05-09T09:40:32.759Z,20.1951
2023-05-09T09:41:34.462Z,20.5044
2023-05-09T09:42:36.765Z,20.5640
2023-05-09T09:43:37.746Z,20.2750
2023-05-09T09:44:39.366Z,19.9866
2023-05-09T09:45:41.095Z,19.8366
2023-05-09T09:46:42.626Z,20.0564
2023-05-09T09:47:44.292Z,20.4697
2023-05-09T09:48:45.917Z,20.5726
2023-05-09T09:49:47.537Z,20.4656
2023-05-09T09:50:49.065Z,20.2861
2023-05-09T09:51:50.790Z,20.0419
2023-05-09T09:52:52.365Z,20.1569
2023-05-09T09:53:54.849Z,20.5112
2023-05-09T09:54:55.700Z,20.5545
2023-05-09T09:55:57.399Z,20.2485
2023-05-09T09:56:58.948Z,19.9695
2023-05-09T09:58:00.580Z,19.8260
2023-05-09T09:59:02.185Z,20.0809
2023-05-09T10:00:03.889Z,20.4599
2023-05-09T10:01:06.371Z,20.4650
2023-05-09T10:02:08.259Z,20.2255
2023-05-09T10:03:08.848Z,19.8931
2023-05-09T10:04:10.643Z,19.8987
2023-05-09T10:05:12.275Z,20.1480
2023-05-09T10:06:13.866Z,20.4845
2023-05-09T10:07:18.987Z,20.5461
2023-05-09T10:08:21.905Z,20.3313
2023-05-09T10:09:23.529Z,20.1242
2023-05-09T10:10:26.159Z,20.0762
2023-05-09T10:11:26.755Z,20.3744
2023-05-09T10:12:28.934Z,20.7049
2023-05-09T10:13:30.260Z,20.6275
2023-05-09T10:14:33.510Z,20.4656
2023-05-09T10:15:41.403Z,20.2961
2023-05-09T10:16:43.597Z,20.1856
2023-05-09T10:17:36.823Z,20.4266
2023-05-09T10:18:38.452Z,20.7505
2023-05-09T10:19:39.900Z,20.6860
2023-05-09T10:20:41.579Z,20.3450
2023-05-09T10:21:43.267Z,20.1415
2023-05-09T10:22:44.890Z,20.0012
2023-05-09T10:23:46.448Z,20.3654
2023-05-09T10:24:48.082Z,20.7369
2023-05-09T10:25:50.462Z,20.7784
2023-05-09T10:26:51.371Z,20.5521
2023-05-09T10:27:53.111Z,20.3559
2023-05-09T10:28:54.701Z,20.2327
2023-05-09T10:29:56.960Z,20.5593
2023-05-09T10:30:58.973Z,20.8025
2023-05-09T10:31:59.549Z,20.7224
2023-05-09T10:33:01.312Z,20.5513
2023-05-09T10:34:02.936Z,20.3674
2023-05-09T10:35:05.470Z,20.3436
2023-05-09T10:36:06.270Z,20.6798
2023-05-09T10:37:07.819Z,20.9789
2023-05-09T10:38:09.462Z,20.9039
2023-05-09T10:39:11.093Z,20.7558
2023-05-09T10:40:12.793Z,20.4535
2023-05-09T10:41:14.398Z,20.3943
2023-05-09T10:42:16.068Z,20.7754
2023-05-09T10:43:17.743Z,20.9760
2023-05-09T10:44:19.342Z,20.9187
2023-05-09T10:45:20.924Z,20.7793
2023-05-09T10:46:22.607Z,20.5504
2023-05-09T10:47:24.251Z,20.4979
2023-05-09T10:48:25.848Z,20.8674
2023-05-09T10:49:27.557Z,21.1541
2023-05-09T10:50:30.084Z,21.0153
2023-05-09T10:51:30.874Z,20.7643
2023-05-09T10:52:32.478Z,20.4693
2023-05-09T10:53:35.416Z,20.5266
2023-05-09T10:54:35.695Z,20.9914
2023-05-09T10:55:37.336Z,21.2227
2023-05-09T10:56:38.967Z,21.1708
2023-05-09T10:57:40.949Z,21.0488
2023-05-09T10:58:42.309Z,20.6846
2023-05-09T10:59:43.902Z,20.6798
2023-05-09T11:00:45.548Z,21.0566
2023-05-09T11:01:48.331Z,21.2739
2023-05-09T11:02:48.778Z,21.1385
2023-05-09T11:03:51.126Z,21.1342
2023-05-09T11:04:52.085Z,20.9039
2023-05-09T11:05:53.695Z,20.8955
2023-05-09T11:06:57.144Z,21.2780
2023-05-09T11:07:57.050Z,21.4292
2023-05-09T11:08:58.659Z,21.2950
2023-05-09T11:10:00.317Z,21.0699
2023-05-09T11:11:01.914Z,20.7220
2023-05-09T11:12:03.608Z,20.6340
2023-05-09T11:13:05.220Z,20.8723
2023-05-09T11:14:06.844Z,21.1523
2023-05-09T11:15:08.499Z,21.2572
2023-05-09T11:16:10.129Z,21.0559
2023-05-09T11:17:11.791Z,20.8659
2023-05-09T11:18:13.419Z,20.8191
2023-05-09T11:19:15.134Z,21.0966
2023-05-09T11:20:16.832Z,21.3433
2023-05-09T11:21:18.312Z,21.3474
2023-05-09T11:22:19.993Z,21.0373
2023-05-09T11:23:21.630Z,20.8152
2023-05-09T11:24:23.309Z,20.7575
2023-05-09T11:25:24.886Z,20.9401
2023-05-09T11:26:26.484Z,21.2842
2023-05-09T11:27:28.402Z,21.3844
2023-05-09T11:28:29.816Z,21.1350
2023-05-09T11:29:32.381Z,20.9841
2023-05-09T11:30:33.143Z,20.7606
2023-05-09T11:31:34.732Z,20.8090
2023-05-09T11:32:36.397Z,21.1135
2023-05-09T11:33:38.085Z,21.0802
2023-05-09T11:34:39.769Z,20.9785
2023-05-09T11:35:41.283Z,20.8842
2023-05-09T11:36:43.084Z,20.7400
2023-05-09T11:37:44.709Z,20.8113
2023-05-09T11:38:46.245Z,21.2537
2023-05-09T11:39:48.365Z,21.4138
2023-05-09T11:40:49.594Z,21.2632
2023-05-09T11:41:51.224Z,21.1165
2023-05-09T11:42:54.068Z,20.9908
2023-05-09T11:43:54.490Z,20.7893
2023-05-09T11:44:56.163Z,20.9752
2023-05-09T11:45:57.769Z,21.3267
2023-05-09T11:46:59.368Z,21.2501
2023-05-09T11:48:01.364Z,21.1100
2023-05-09T11:49:02.641Z,20.8520
2023-05-09T11:50:04.351Z,20.7059
2023-05-09T11:51:07.850Z,20.8760
2023-05-09T11:52:07.598Z,21.2166
2023-05-09T11:53:09.326Z,21.1525
2023-05-09T11:54:10.921Z,21.0272
2023-05-09T11:55:12.901Z,20.8462
2023-05-09T11:56:14.171Z,20.6932
2023-05-09T11:57:15.872Z,20.8789
2023-05-09T11:58:17.373Z,21.2640
2023-05-09T11:59:19.126Z,21.4497
2023-05-09T12:00:20.791Z,21.2334
2023-05-09T12:01:22.417Z,21.1194
2023-05-09T12:02:24.796Z,20.9674
2023-05-09T12:03:25.959Z,20.8713
2023-05-09T12:04:27.339Z,21.0588
2023-05-09T12:05:28.980Z,21.3326
2023-05-09T12:06:30.565Z,21.2494
2023-05-09T12:07:32.212Z,21.1905
2023-05-09T12:08:33.816Z,21.1120
2023-05-09T12:09:35.509Z,20.9424
2023-05-09T12:10:37.118Z,21.0140
2023-05-09T12:11:38.916Z,21.3394
2023-05-09T12:12:40.507Z,21.2926
2023-05-09T12:13:42.096Z,21.1537
2023-05-09T12:14:43.755Z,20.9873
2023-05-09T12:15:45.963Z,20.9054
2023-05-09T12:16:47.106Z,20.9007
2023-05-09T12:17:51.848Z,21.1139
2023-05-09T12:18:50.359Z,21.3400
2023-05-09T12:19:51.974Z,21.3799
2023-05-09T12:20:53.650Z,21.2063
2023-05-09T12:21:55.301Z,20.9132
2023-05-09T12:22:56.934Z,20.7665
2023-05-09T12:23:58.808Z,20.8799
2023-05-09T12:25:00.160Z,21.1040